Aviation meteorology

METAR


Last update: 25 Feb 2020 05:50:00
698
SAHU41 HASM 250600
METAR LHSM 250545Z AUTO 00000KT CAVOK 01/M03 Q1011

TAF


Last update: 25 Feb 2020 05:05:00
696
FCHU99 LHSM 250500
TAF LHSM 250500Z NIL